Time;durP1;ratioP1;P1;durP2;ratioP2;P2;SDS_P1;SDS_P2;PMS_P1;PMS_P2;Temp;Humidity;BMP_temperature;BMP_pressure;BME280_temperature;BME280_humidity;BME280_pressure;Samples;Min_cycle;Max_cycle;Signal;HPM_P1;HPM_P2
2021/06/11 05:01:18;;;;;;;;;1.25;1.25;;;;;19.96;61.72;101898.16;4957282;28;46029;-75
2021/06/11 05:03:43;;;;;;;;;2.75;2.75;;;;;19.85;61.23;101880.09;4960891;28;45248;-75
2021/06/11 05:06:09;;;;;;;;;3.25;2.25;;;;;19.97;62.06;101903.44;4960379;28;45310;-75
2021/06/11 05:08:35;;;;;;;;;1.00;1.00;;;;;19.99;61.98;101904.22;4960554;28;45442;-75
2021/06/11 05:11:01;;;;;;;;;3.25;2.25;;;;;20.05;61.63;101919.00;4992563;28;48107;-75
2021/06/11 05:13:27;;;;;;;;;1.50;1.50;;;;;20.05;60.76;101918.16;4961055;28;45256;-75
2021/06/11 05:15:53;;;;;;;;;1.75;1.75;;;;;20.02;60.85;101919.19;4958630;28;45321;-75
2021/06/11 05:18:18;;;;;;;;;3.75;2.00;;;;;19.91;60.85;101895.75;4959349;28;45306;-75
2021/06/11 05:20:44;;;;;;;;;1.00;1.00;;;;;20.09;61.29;101914.38;4991665;28;48204;-71
2021/06/11 05:23:09;;;;;;;;;3.50;2.00;;;;;20.11;60.55;101915.19;4960787;28;45222;-70
2021/06/11 05:25:36;;;;;;;;;3.50;3.00;;;;;20.14;60.50;101923.03;4961191;28;45876;-72
2021/06/11 05:28:01;;;;;;;;;3.00;1.25;;;;;20.18;61.00;101918.38;4959826;28;45463;-71
2021/06/11 05:30:27;;;;;;;;;2.00;2.00;;;;;20.19;60.33;101920.09;4958686;28;45442;-71
2021/06/11 05:32:53;;;;;;;;;2.00;2.00;;;;;20.09;60.49;101893.03;4959412;28;45738;-71
2021/06/11 05:35:19;;;;;;;;;1.25;1.25;;;;;20.33;60.56;101922.00;4960121;28;45374;-71
2021/06/11 05:37:44;;;;;;;;;2.00;2.00;;;;;20.39;61.24;101929.66;4960550;28;45483;-72
2021/06/11 05:40:11;;;;;;;;;2.25;2.25;;;;;20.45;61.63;101937.31;4955876;28;45404;-71
2021/06/11 05:42:36;;;;;;;;;2.25;2.00;;;;;20.34;60.14;101916.59;4968447;28;45580;-72
2021/06/11 05:45:02;;;;;;;;;3.00;3.00;;;;;20.50;59.44;101938.88;4963646;28;45237;-70
2021/06/11 05:47:28;;;;;;;;;3.00;3.00;;;;;20.46;58.91;101927.50;4958924;28;45476;-70
2021/06/11 05:49:53;;;;;;;;;2.50;2.00;;;;;20.48;58.98;101928.28;4957986;28;45951;-71
2021/06/11 05:52:19;;;;;;;;;3.25;3.25;;;;;20.58;58.71;101942.84;4959719;28;45257;-71
2021/06/11 05:54:44;;;;;;;;;2.00;2.00;;;;;20.57;58.87;101937.56;4959711;28;45368;-71
2021/06/11 05:57:09;;;;;;;;;3.00;2.75;;;;;20.61;58.29;101925.78;4958583;28;45463;-71
2021/06/11 05:59:35;;;;;;;;;2.75;2.00;;;;;20.66;58.11;101934.41;4974202;28;46632;-72
2021/06/11 06:02:00;;;;;;;;;4.00;2.50;;;;;20.72;58.98;101943.84;4960082;28;45159;-69
2021/06/11 06:04:25;;;;;;;;;4.00;2.00;;;;;20.77;59.39;101941.78;4958527;28;45494;-68
2021/06/11 06:06:51;;;;;;;;;2.25;2.25;;;;;20.85;58.42;101949.34;4959319;28;45404;-70
2021/06/11 06:09:16;;;;;;;;;3.00;3.00;;;;;20.75;58.25;101922.31;4959495;28;46144;-70
2021/06/11 06:11:42;;;;;;;;;2.00;2.00;;;;;20.90;58.40;101938.38;4958531;28;45518;-70
2021/06/11 06:14:08;;;;;;;;;3.75;3.75;;;;;20.84;58.14;101930.75;4959939;28;45511;-70
2021/06/11 06:52:52;;;;;;;;;6.75;6.25;;;;;21.61;57.86;101961.06;5034407;23;45762;-67
2021/06/11 06:55:17;;;;;;;;;5.00;4.50;;;;;21.64;57.46;101955.50;4938790;28;45415;-66
2021/06/11 06:57:43;;;;;;;;;7.00;5.75;;;;;21.69;57.17;101959.63;4942818;28;45302;-66
2021/06/11 07:00:09;;;;;;;;;5.25;5.25;;;;;21.70;57.24;101960.50;4941755;28;46414;-66
2021/06/11 07:02:35;;;;;;;;;6.00;6.00;;;;;21.70;57.33;101963.16;4943308;28;45742;-67
2021/06/11 07:05:00;;;;;;;;;9.50;5.75;;;;;21.69;57.75;101964.97;4942866;28;45344;-67
2021/06/11 07:07:26;;;;;;;;;6.25;5.50;;;;;21.73;57.14;101964.78;4939998;28;45389;-66
2021/06/11 07:09:51;;;;;;;;;7.00;6.00;;;;;21.72;57.58;101963.94;4941200;28;47053;-66
2021/06/11 07:12:17;;;;;;;;;7.25;5.25;;;;;21.74;57.40;101959.34;4942278;28;45383;-66
2021/06/11 07:14:42;;;;;;;;;7.50;6.75;;;;;21.77;57.24;101956.47;4942372;28;45399;-66
2021/06/11 07:17:07;;;;;;;;;7.50;7.25;;;;;21.79;56.54;101964.41;4942115;28;45498;-66
2021/06/11 07:19:33;;;;;;;;;8.50;7.75;;;;;21.80;56.84;101963.47;4940617;28;47282;-66
2021/06/11 07:21:58;;;;;;;;;7.50;7.25;;;;;21.80;56.65;101956.28;4942292;28;45427;-67
2021/06/11 07:24:24;;;;;;;;;6.50;5.75;;;;;21.83;56.58;101962.41;4933461;28;45817;-67
2021/06/11 07:26:49;;;;;;;;;7.75;6.75;;;;;21.87;57.16;101966.66;4942904;28;45462;-67
2021/06/11 07:29:14;;;;;;;;;9.75;7.00;;;;;21.88;56.47;101971.88;4941609;28;45383;-67
2021/06/11 07:31:40;;;;;;;;;7.00;6.75;;;;;21.92;56.12;101967.22;4925496;28;45554;-67
2021/06/11 07:34:06;;;;;;;;;8.50;6.25;;;;;21.97;56.73;101973.16;4938720;28;45421;-67
2021/06/11 07:36:31;;;;;;;;;6.75;6.50;;;;;21.97;56.21;101970.47;4941868;28;45195;-67
2021/06/11 07:38:57;;;;;;;;;10.25;8.25;;;;;21.93;56.74;101966.25;4941314;28;47170;-67
2021/06/11 07:54:39;;;;;;;;;12.25;10.00;;;;;22.12;56.09;101971.34;5707791;23;46885;-69
2021/06/11 07:57:04;;;;;;;;;15.75;12.00;;;;;22.14;56.23;101968.53;4967738;28;45393;-72
2021/06/11 07:59:30;;;;;;;;;13.00;12.25;;;;;22.21;55.73;101975.22;4968838;28;47946;-71
2021/06/11 08:01:55;;;;;;;;;8.25;8.25;;;;;22.24;56.18;101972.38;4981429;28;45415;-71
2021/06/11 08:04:21;;;;;;;;;9.50;7.75;;;;;22.13;55.54;101970.34;4968822;28;45462;-72
2021/06/11 08:06:47;;;;;;;;;6.50;6.50;;;;;22.17;55.54;101976.38;4961875;28;45388;-71
2021/06/11 08:09:13;;;;;;;;;5.50;5.00;;;;;22.19;55.38;101969.13;4965341;28;45580;-72
2021/06/11 08:11:39;;;;;;;;;9.50;7.25;;;;;22.26;55.56;101983.84;4970064;28;45234;-71
2021/06/11 08:14:04;;;;;;;;;6.00;6.00;;;;;22.07;55.42;101940.44;4979622;28;45415;-71
2021/06/11 08:16:29;;;;;;;;;8.75;5.00;;;;;22.32;55.46;101966.50;4973087;28;45295;-71
2021/06/11 08:18:55;;;;;;;;;6.00;6.00;;;;;22.36;55.43;101970.72;4973718;28;45519;-72
2021/06/11 08:21:21;;;;;;;;;5.00;5.00;;;;;22.40;54.74;101974.03;4965328;28;45482;-73
2021/06/11 08:23:46;;;;;;;;;16.75;14.75;;;;;22.47;55.52;101972.69;4976559;28;45289;-74
2021/06/11 08:26:12;;;;;;;;;3.00;2.00;;;;;22.48;54.90;101971.75;4975569;28;47423;-74
2021/06/11 12:45:53;;;;;;;;;6.00;4.75;;;;;26.06;45.68;101871.00;5829921;23;45830;-75
2021/06/11 12:48:18;;;;;;;;;5.00;5.00;;;;;26.09;45.82;101871.72;4970143;28;45558;-75
2021/06/11 12:50:43;;;;;;;;;4.00;4.00;;;;;26.11;45.59;101869.75;4963501;28;45480;-76
2021/06/11 12:53:09;;;;;;;;;3.75;3.75;;;;;26.10;44.81;101851.91;4970388;28;46045;-77
2021/06/11 12:55:42;;;;;;;;;4.00;4.00;;;;;26.26;44.65;101871.19;4968851;28;45520;-75
2021/06/11 12:58:09;;;;;;;;;5.50;4.50;;;;;26.27;44.56;101872.06;4969196;28;45364;-75
2021/06/11 13:00:34;;;;;;;;;3.25;3.00;;;;;26.34;44.54;101872.41;4977485;28;45659;-76
2021/06/11 13:03:00;;;;;;;;;3.50;3.50;;;;;26.33;44.10;101873.38;4972549;28;48132;-77
2021/06/11 13:05:27;;;;;;;;;3.25;3.25;;;;;26.39;44.21;101875.56;4980429;28;45245;-76
2021/06/11 13:07:53;;;;;;;;;4.25;4.25;;;;;26.43;44.14;101886.97;4976056;28;45252;-76
2021/06/11 13:10:19;;;;;;;;;5.00;4.25;;;;;26.35;44.52;101869.56;4964899;28;45521;-76
2021/06/11 13:12:44;;;;;;;;;4.25;4.00;;;;;26.41;44.53;101879.84;4970502;28;45964;-76
2021/06/11 13:15:10;;;;;;;;;3.50;3.50;;;;;26.49;43.78;101886.47;4968349;28;45494;-76
2021/06/11 13:17:37;;;;;;;;;2.25;2.25;;;;;26.51;43.37;101893.44;4965571;28;45376;-76
2021/06/11 13:20:04;;;;;;;;;4.00;4.00;;;;;26.42;43.93;101864.53;4961784;28;45463;-76
2021/06/11 13:22:30;;;;;;;;;5.50;3.75;;;;;26.45;43.99;101864.28;4960912;28;46210;-76
2021/06/11 13:24:56;;;;;;;;;3.25;3.25;;;;;26.53;44.39;101879.81;4960893;28;45278;-76
2021/06/11 13:27:21;;;;;;;;;6.25;6.25;;;;;26.47;44.37;101854.22;4972545;28;45569;-76
2021/06/11 13:29:46;;;;;;;;;3.00;3.00;;;;;26.59;44.92;101873.94;4969725;28;45394;-76
2021/06/11 13:32:12;;;;;;;;;3.50;2.50;;;;;26.56;43.95;101865.22;4977267;28;45820;-77
2021/06/11 13:34:37;;;;;;;;;3.00;3.00;;;;;26.63;43.51;101872.69;4970488;28;45451;-77
2021/06/11 13:37:03;;;;;;;;;2.50;2.50;;;;;26.63;43.02;101855.63;4969598;28;45485;-76
2021/06/11 13:39:28;;;;;;;;;4.75;4.00;;;;;26.58;42.98;101847.94;4980024;28;45363;-76
2021/06/11 13:41:53;;;;;;;;;2.00;2.00;;;;;26.71;43.87;101861.25;4973932;28;46167;-76
2021/06/11 13:44:19;;;;;;;;;2.00;2.00;;;;;26.72;43.59;101865.63;4973622;28;45388;-77
2021/06/11 13:46:44;;;;;;;;;2.75;2.75;;;;;26.70;43.41;101856.81;4971898;28;45788;-77
2021/06/11 13:49:09;;;;;;;;;3.50;3.50;;;;;26.80;43.61;101866.81;4980237;28;45316;-76
2021/06/11 16:05:25;;;;;;;;;1.50;1.50;;;;;27.58;41.85;101826.91;5223243;23;46041;-77
2021/06/11 16:07:51;;;;;;;;;1.00;1.00;;;;;27.61;41.92;101815.81;4936366;28;45434;-77
2021/06/11 16:10:16;;;;;;;;;1.25;1.25;;;;;27.63;41.67;101814.69;4939780;28;45352;-77
2021/06/11 16:12:43;;;;;;;;;2.75;2.75;;;;;27.69;41.73;101809.75;4930296;28;46043;-77
2021/06/11 16:15:08;;;;;;;;;1.00;1.00;;;;;27.74;41.45;101808.34;4937258;28;47353;-78
2021/06/11 16:17:34;;;;;;;;;1.75;1.75;;;;;27.78;41.61;101811.59;4938026;28;45356;-77
2021/06/11 16:20:00;;;;;;;;;2.25;1.25;;;;;27.79;42.30;101812.50;4941369;28;45287;-78
2021/06/11 16:22:26;;;;;;;;;1.50;1.50;;;;;27.85;41.86;101807.38;4940956;28;45431;-78
2021/06/11 16:24:52;;;;;;;;;2.00;2.00;;;;;27.80;41.83;101792.59;4941595;28;45356;-78
2021/06/11 16:27:18;;;;;;;;;1.50;1.50;;;;;27.86;41.44;101803.69;4941733;28;45163;-78
2021/06/11 16:29:43;;;;;;;;;1.00;1.00;;;;;27.82;41.71;101804.97;4939323;28;45334;-79
2021/06/11 16:32:09;;;;;;;;;1.00;1.00;;;;;27.73;41.60;101782.31;4932628;28;45379;-79
2021/06/11 16:34:35;;;;;;;;;2.00;2.00;;;;;27.57;41.15;101758.56;4935362;28;48462;-78
2021/06/11 16:37:01;;;;;;;;;1.00;1.00;;;;;27.75;40.80;101784.91;4939355;28;45813;-79
2021/06/11 16:39:26;;;;;;;;;1.00;1.00;;;;;27.67;41.19;101779.31;4931541;28;45531;-78
2021/06/11 16:41:52;;;;;;;;;1.00;1.00;;;;;27.73;41.44;101786.88;4927171;28;45748;-79
2021/06/11 16:44:17;;;;;;;;;2.00;2.00;;;;;27.59;41.16;101766.50;4936997;28;47052;-79
2021/06/11 16:46:43;;;;;;;;;2.00;2.00;;;;;27.70;41.73;101784.47;4933855;28;45408;-79
2021/06/11 16:49:09;;;;;;;;;1.00;1.00;;;;;27.69;41.09;101794.41;4932738;28;45373;-78
2021/06/11 16:51:35;;;;;;;;;1.00;1.00;;;;;27.59;40.82;101785.41;4937441;28;45587;-79
2021/06/11 16:54:01;;;;;;;;;1.00;1.00;;;;;27.61;41.30;101795.09;4941030;28;46675;-79
2021/06/11 16:56:27;;;;;;;;;1.00;1.00;;;;;27.60;40.68;101792.53;4940935;28;45352;-79
2021/06/11 16:58:52;;;;;;;;;1.00;1.00;;;;;27.43;41.06;101770.63;4941140;28;45346;-78
2021/06/11 17:01:18;;;;;;;;;1.75;1.75;;;;;27.48;41.00;101781.00;4938916;28;46680;-79
2021/06/11 17:03:44;;;;;;;;;1.25;1.25;;;;;27.45;41.29;101789.38;4931666;28;47467;-79
2021/06/11 17:06:09;;;;;;;;;1.25;1.00;;;;;27.41;40.78;101789.63;4935206;28;45288;-79
2021/06/11 18:46:01;;;;;;;;;7.00;6.25;;;;;26.21;43.97;101800.69;4942064;28;46009;-71
2021/06/11 18:48:48;;;;;;;;;7.25;6.25;;;;;26.22;43.49;101828.47;4947554;28;45554;-72
2021/06/11 18:51:18;;;;;;;;;9.75;9.00;;;;;26.16;43.42;101817.22;4955367;28;46749;-72
2021/06/11 18:53:48;;;;;;;;;5.50;5.50;;;;;26.13;43.57;101808.53;4957528;28;45398;-72
2021/06/11 21:07:34;;;;;;;;;7.00;7.00;;;;;24.59;47.40;101903.81;5432452;23;45683;-74
2021/06/11 21:10:00;;;;;;;;;8.75;8.75;;;;;24.66;47.56;101929.25;4959494;28;46334;-74
2021/06/11 21:12:26;;;;;;;;;7.00;7.00;;;;;24.62;47.73;101930.44;4957423;28;46098;-74
2021/06/11 21:14:54;;;;;;;;;9.25;8.50;;;;;24.53;48.38;101920.38;4945941;28;45466;-74
2021/06/11 21:17:20;;;;;;;;;8.75;8.25;;;;;24.54;48.48;101922.97;4959607;28;45667;-74
2021/06/11 21:19:46;;;;;;;;;9.50;8.75;;;;;24.53;48.80;101933.81;4960558;28;45284;-74
2021/06/11 21:22:13;;;;;;;;;8.50;8.00;;;;;24.43;49.33;101922.88;4956412;28;45376;-75
2021/06/11 21:24:38;;;;;;;;;7.50;7.50;;;;;24.44;49.26;101928.16;4952012;28;46185;-75
2021/06/11 21:27:05;;;;;;;;;8.00;8.00;;;;;24.50;49.49;101937.59;4951416;28;46012;-75
2021/06/11 21:29:30;;;;;;;;;8.50;7.00;;;;;24.40;49.64;101923.97;4960563;28;45273;-74
2021/06/11 21:31:56;;;;;;;;;9.25;8.25;;;;;24.45;49.78;101935.25;4956014;28;45471;-75
2021/06/11 21:34:22;;;;;;;;;11.00;9.00;;;;;24.43;50.09;101942.56;4958056;28;46534;-74
2021/06/11 21:36:48;;;;;;;;;7.75;6.50;;;;;24.20;50.53;101915.53;4951323;28;45427;-75
2021/06/11 21:39:14;;;;;;;;;9.00;7.25;;;;;24.38;50.39;101947.41;4941647;28;45246;-74
2021/06/11 21:41:41;;;;;;;;;6.00;5.75;;;;;24.32;50.94;101955.94;4951235;28;45365;-74
2021/06/11 21:44:07;;;;;;;;;5.75;5.75;;;;;24.33;51.09;101963.00;4960275;28;45418;-73
2021/06/11 21:46:32;;;;;;;;;7.00;6.50;;;;;24.31;51.76;101962.25;4958809;28;45266;-73
2021/06/11 21:48:57;;;;;;;;;6.50;6.50;;;;;24.01;51.68;101924.94;4956039;28;45770;-73
2021/06/11 21:51:23;;;;;;;;;5.00;5.00;;;;;24.17;51.89;101962.25;4959925;28;45211;-73
2021/06/11 21:53:49;;;;;;;;;6.00;6.00;;;;;24.21;51.83;101973.66;4944413;28;45966;-73
2021/06/11 21:56:16;;;;;;;;;6.00;6.00;;;;;24.13;52.23;101957.22;4956685;28;45236;-73
2021/06/11 21:58:44;;;;;;;;;6.50;5.00;;;;;24.14;52.85;101973.25;4959248;28;45418;-73
2021/06/11 22:01:11;;;;;;;;;4.25;4.00;;;;;23.99;52.66;101959.09;4960254;28;45352;-73
2021/06/11 22:03:38;;;;;;;;;5.00;5.00;;;;;24.02;52.97;101961.56;4960285;28;46146;-73
2021/06/11 22:06:04;;;;;;;;;5.00;3.75;;;;;23.98;52.58;101964.59;4955154;28;45504;-73
2021/06/11 22:08:30;;;;;;;;;5.00;3.25;;;;;23.89;53.38;101966.94;4939108;28;45251;-73
2021/06/11 22:10:56;;;;;;;;;4.25;4.25;;;;;23.92;53.71;101974.78;4959841;28;45417;-73
2021/06/11 22:13:22;;;;;;;;;4.00;4.00;;;;;23.87;53.87;101973.38;4962287;28;47471;-73
2021/06/11 22:15:48;;;;;;;;;4.50;4.00;;;;;23.87;54.07;101973.38;4958612;28;45420;-73
2021/06/11 22:18:13;;;;;;;;;6.50;6.00;;;;;23.77;54.25;101963.31;4950310;28;45381;-73
2021/06/11 22:20:39;;;;;;;;;4.75;4.75;;;;;23.82;54.70;101977.25;4962155;28;45451;-73
2021/06/11 22:23:05;;;;;;;;;3.50;3.50;;;;;23.80;54.62;101979.19;4957971;28;45997;-73
2021/06/11 22:25:31;;;;;;;;;4.50;4.50;;;;;23.75;54.42;101975.97;4959509;28;45614;-73
